Pagrindinis puslapis
METAR-TAF:

METAR-TAF

Oro uostai :

Sundsvalis-Herniosandas, Švedija

platuma: 62-32N, ilguma: 017-27E, Aukštis: 4 m

Dabartinis oras

Ataskaita buvo paskelbta 56 minutes, ne 04:20 UTC
Vėjas 3 kt iš Rytų/Šiaurės Rytų, svyruoja nuo Šiaurės/Šiaurės Rytų ir Rytų/Pietryčių
Temperatūra 13°C
Drėgmė 88%
Slėgis 1011 hPa
Matomumas 10 km arba daugiau
nėra debesų žemiau 1500 m ir nėra kamuolinių lietaus debesų

METAR: ESNN 160420Z 06003KT 020V110 CAVOK 13/11 Q1011

Laikas: 07:16 (05:16 UTC)


TAF: trūkstamas

Orai ataskaitas ir orų prognozės (METAR, TAF).

turimą stotys yra geltonos ir raudonos taškus žemėlapyje.

Perkelti pele per norėdami pamatyti stoties vardą.

Tada spustelėkite, norėdami matyti oro stebėjimo ir prognozės.

Norėdami pakeisti žemėlapį: spustelėkite ant žalios mygtukų su juodo kryžiaus žemyn,; žalią mygtuką su brūkšneliu, jei norite nutolinti; arba žalių rodyklių gretimoms žemėlapius.


METAR-TAF: